Borba, Brazil
Current Conditions -  °F | °C
As of 7:00 PM on Friday 19 Dec 2014 (Local Time) from SBPK Reporting Station
Clear Clear  
Wind Chill: 81°   Ceiling: Unl
Heat Index: 81°   Visibility: 6mi
Dew Point: 54°   Wind: 12mph
Humidity: 39%   Direction: 90°E
Pressure: 29.71"   Gusts: NA
Location:  30.97°S, 52.38°W
Report Text: SBPK 192100Z 09010KT CAVOK 27/12 Q1006
Loading
Personal Weather Stations






























Interactive Weather Map New forecast layout! Learn more

10-Day Weather Forecast

Advertisements
Track Severe Weather on mobile